This is the latest recevied weather packets stored in our database for station/object BMCB-27. If no packets are shown the sender has not sent any weather packets the latest 10 day(s).
| Time | Temp. | Humidity | Pressure | Rain* | Wind** | Luminosity | Snow |
|---|---|---|---|---|---|---|---|
| 1777326531 | 10.56° C | 56% | 1018.5 hPa | 0 mm | - | 0 W/m² | - |
| 1777323810 | 10.56° C | 55% | 1018.6 hPa | 0 mm | - | 0 W/m² | - |
| 1777322929 | 11.11° C | 54% | 1018.6 hPa | 0 mm | - | 0 W/m² | - |
| 1777320413 | 11.67° C | 52% | 1018.8 hPa | 0 mm | - | 0 W/m² | - |
| 1777319950 | 12.22° C | 51% | 1018.7 hPa | 0 mm | - | 0 W/m² | - |
| 1777318810 | 12.78° C | 48% | 1018.6 hPa | 0 mm | - | 0 W/m² | - |
| 1777317416 | 13.89° C | 44% | 1018.5 hPa | 0 mm | - | 0 W/m² | - |
| 1777307496 | 16.67° C | 36% | 1018.6 hPa | 0 mm | - | 160 W/m² | - |
| 1777306286 | 17.22° C | 38% | 1018.7 hPa | 0 mm | - | 180 W/m² | - |
| 1777305469 | 17.22° C | 34% | 1018.7 hPa | 0 mm | - | 316 W/m² | - |
| 1777303869 | 17.78° C | 37% | 1018.8 hPa | 0 mm | - | 426 W/m² | - |
| 1777300952 | 17.78° C | 38% | 1019.4 hPa | 0 mm | - | 520 W/m² | - |
| 1777299252 | 17.78° C | 37% | 1019.7 hPa | 0 mm | - | 578 W/m² | - |
| 1777297585 | 17.22° C | 38% | 1019.9 hPa | 0 mm | - | 610 W/m² | - |
| 1777297283 | 17.78° C | 37% | 1019.9 hPa | 0 mm | - | 632 W/m² | - |
| 1777296963 | 17.78° C | 38% | 1020 hPa | 0 mm | - | 644 W/m² | - |
| 1777294359 | 17.22° C | 40% | 1020.3 hPa | 0 mm | - | 692 W/m² | - |
| 1777292478 | 16.67° C | 39% | 1020.5 hPa | 0 mm | - | 728 W/m² | - |
| 1777289642 | 16.11° C | 45% | 1021 hPa | 0 mm | - | 750 W/m² | - |
| 1777284081 | 14.44° C | 49% | 1021.7 hPa | 0 mm | - | 662 W/m² | - |
| 1777282863 | 13.89° C | 50% | 1021.9 hPa | 0 mm | - | 554 W/m² | - |
| 1777282373 | 13.33° C | 50% | 1021.9 hPa | 0 mm | - | 500 W/m² | - |
| 1777279954 | 12.22° C | 56% | 1022.2 hPa | 0 mm | - | 470 W/m² | - |
| 1777276729 | 10.56° C | 65% | 1022.3 hPa | 0 mm | - | 338 W/m² | - |
| 1777268925 | 5° C | 86% | 1022.5 hPa | 0 mm | - | 72 W/m² | - |
* Rain latest hour (hover to see other rain measurements)
** Current wind speed in m/s (hover to see current wind gust speed)